createdAt,value
2023-05-11T00:00:48.826Z,12.60
2023-05-11T00:01:48.811Z,11.50
2023-05-11T00:02:48.894Z,11.90
2023-05-11T00:03:48.850Z,15.00
2023-05-11T00:04:48.784Z,11.20
2023-05-11T00:05:48.750Z,11.40
2023-05-11T00:06:48.724Z,11.30
2023-05-11T00:07:48.748Z,11.30
2023-05-11T00:08:48.721Z,10.60
2023-05-11T00:09:48.687Z,11.70
2023-05-11T00:10:48.706Z,10.60
2023-05-11T00:11:48.692Z,11.70
2023-05-11T00:12:48.671Z,11.80
2023-05-11T00:13:48.647Z,12.10
2023-05-11T00:14:48.614Z,10.90
2023-05-11T00:15:48.811Z,10.90
2023-05-11T00:16:48.765Z,10.90
2023-05-11T00:17:48.842Z,13.60
2023-05-11T00:18:48.754Z,13.00
2023-05-11T00:19:49.142Z,11.90
2023-05-11T00:20:48.560Z,11.30
2023-05-11T00:21:48.532Z,13.20
2023-05-11T00:22:48.511Z,12.40
2023-05-11T00:23:48.548Z,12.00
2023-05-11T00:24:48.611Z,12.60
2023-05-11T00:25:48.537Z,12.30
2023-05-11T00:26:48.536Z,12.90
2023-05-11T00:27:48.625Z,12.80
2023-05-11T00:28:48.581Z,12.60
2023-05-11T00:29:48.472Z,12.90
2023-05-11T00:30:48.430Z,16.20
2023-05-11T00:31:48.585Z,11.90
2023-05-11T00:32:48.775Z,11.90
2023-05-11T00:33:48.649Z,11.60
2023-05-11T00:34:48.556Z,11.10
2023-05-11T00:35:48.582Z,12.30
2023-05-11T00:36:48.367Z,12.90
2023-05-11T00:37:48.324Z,11.90
2023-05-11T00:38:48.333Z,11.50
2023-05-11T00:39:48.287Z,12.70
2023-05-11T00:40:48.292Z,12.50
2023-05-11T00:41:48.314Z,10.70
2023-05-11T00:42:48.245Z,11.40
2023-05-11T00:43:48.281Z,11.20
2023-05-11T00:44:48.354Z,12.50
2023-05-11T00:45:48.298Z,10.60
2023-05-11T00:46:48.284Z,10.50
2023-05-11T00:47:48.247Z,10.30
2023-05-11T00:48:48.179Z,11.40
2023-05-11T00:49:48.181Z,10.60
2023-05-11T00:50:48.162Z,11.50
2023-05-11T00:51:48.121Z,9.70
2023-05-11T00:52:48.123Z,12.30
2023-05-11T00:53:48.106Z,12.10
2023-05-11T00:54:48.092Z,9.90
2023-05-11T00:55:48.103Z,10.70
2023-05-11T00:56:48.092Z,11.50
2023-05-11T00:57:48.073Z,10.30
2023-05-11T00:58:48.061Z,10.90
2023-05-11T00:59:48.042Z,11.10
2023-05-11T01:00:48.082Z,10.50
2023-05-11T01:01:48.156Z,11.60
2023-05-11T01:02:48.016Z,16.10
2023-05-11T01:03:47.983Z,13.30
2023-05-11T01:04:48.002Z,13.20
2023-05-11T01:05:47.942Z,12.20
2023-05-11T01:06:47.928Z,11.40
2023-05-11T01:07:47.935Z,12.80
2023-05-11T01:08:47.911Z,11.10
2023-05-11T01:09:47.920Z,11.70
2023-05-11T01:10:47.913Z,10.70
2023-05-11T01:11:48.440Z,10.40
2023-05-11T01:12:47.883Z,11.70
2023-05-11T01:13:47.842Z,11.80
2023-05-11T01:14:47.841Z,10.90
2023-05-11T01:15:47.854Z,10.50
2023-05-11T01:16:47.852Z,11.10
2023-05-11T01:17:47.904Z,10.80
2023-05-11T01:18:47.918Z,11.80
2023-05-11T01:19:47.775Z,10.50
2023-05-11T01:20:47.761Z,10.70
2023-05-11T01:21:47.770Z,12.00
2023-05-11T01:22:47.754Z,11.60
2023-05-11T01:23:47.742Z,11.70
2023-05-11T01:24:50.476Z,11.30
2023-05-11T01:25:47.704Z,10.30
2023-05-11T01:26:48.738Z,11.40
2023-05-11T01:27:49.307Z,12.10
2023-05-11T01:28:48.289Z,14.80
2023-05-11T01:29:48.943Z,11.40
2023-05-11T01:30:48.586Z,11.40
2023-05-11T01:31:48.838Z,10.90
2023-05-11T01:32:49.421Z,11.50
2023-05-11T01:33:48.617Z,13.10
2023-05-11T01:34:48.807Z,11.60
2023-05-11T01:35:49.458Z,14.70
2023-05-11T01:36:47.667Z,11.30
2023-05-11T01:37:47.553Z,12.60
2023-05-11T01:38:47.520Z,13.40
2023-05-11T01:39:47.527Z,12.30
2023-05-11T01:40:47.487Z,12.20
2023-05-11T01:41:47.499Z,12.10
2023-05-11T01:42:47.542Z,11.60
2023-05-11T01:43:47.497Z,10.80
2023-05-11T01:44:47.499Z,11.80
2023-05-11T01:45:50.481Z,14.10
2023-05-11T01:46:47.659Z,11.10
2023-05-11T01:47:47.436Z,10.50
2023-05-11T01:48:47.464Z,12.40
2023-05-11T01:49:48.173Z,11.50
2023-05-11T01:50:47.510Z,12.70
2023-05-11T01:51:47.355Z,11.30
2023-05-11T01:52:47.361Z,11.40
2023-05-11T01:53:47.322Z,15.00
2023-05-11T01:54:47.301Z,12.00
2023-05-11T01:55:47.291Z,15.10
2023-05-11T01:56:53.355Z,10.50
2023-05-11T01:57:47.311Z,12.30
2023-05-11T01:58:47.250Z,11.10
2023-05-11T01:59:47.243Z,13.70
2023-05-11T02:00:47.218Z,12.00
2023-05-11T02:01:47.275Z,12.70
2023-05-11T02:02:47.287Z,13.40
2023-05-11T02:03:47.227Z,12.70
2023-05-11T02:04:47.185Z,12.90
2023-05-11T02:05:47.177Z,14.20
2023-05-11T02:06:47.134Z,12.40
2023-05-11T02:07:47.152Z,12.70
2023-05-11T02:08:47.124Z,12.10
2023-05-11T02:09:47.134Z,11.20
2023-05-11T02:10:47.116Z,12.30
2023-05-11T02:11:47.076Z,12.10
2023-05-11T02:12:47.100Z,12.80
2023-05-11T02:13:47.026Z,11.70
2023-05-11T02:14:47.054Z,12.10
2023-05-11T02:15:47.068Z,12.80
2023-05-11T02:16:47.054Z,13.30
2023-05-11T02:17:47.028Z,12.90
2023-05-11T02:18:47.027Z,12.50
2023-05-11T02:19:46.979Z,12.90
2023-05-11T02:20:46.982Z,14.80
2023-05-11T02:21:46.965Z,12.10
2023-05-11T02:22:46.951Z,14.40
2023-05-11T02:23:46.928Z,13.40
2023-05-11T02:24:46.922Z,13.30
2023-05-11T02:25:46.891Z,16.80
2023-05-11T02:26:46.866Z,13.60
2023-05-11T02:27:46.887Z,17.20
2023-05-11T02:28:46.883Z,13.50
2023-05-11T02:29:46.833Z,13.00
2023-05-11T02:30:46.886Z,13.10
2023-05-11T02:31:46.970Z,14.00
2023-05-11T02:32:46.894Z,13.60
2023-05-11T02:33:46.808Z,13.60
2023-05-11T02:34:46.797Z,16.60
2023-05-11T02:35:46.807Z,13.40
2023-05-11T02:36:46.761Z,16.20
2023-05-11T02:37:46.745Z,12.90
2023-05-11T02:38:46.713Z,11.90
2023-05-11T02:39:46.716Z,12.10
2023-05-11T02:40:46.731Z,12.20
2023-05-11T02:41:46.671Z,13.60
2023-05-11T02:42:46.676Z,12.30
2023-05-11T02:43:46.662Z,12.50
2023-05-11T02:44:46.657Z,13.50
2023-05-11T02:45:46.648Z,14.20
2023-05-11T02:46:46.667Z,13.30
2023-05-11T02:47:46.637Z,11.90
2023-05-11T02:48:46.619Z,11.80
2023-05-11T02:49:46.600Z,13.50
2023-05-11T02:50:46.595Z,12.80
2023-05-11T02:51:46.584Z,15.70
2023-05-11T02:52:46.544Z,13.60
2023-05-11T02:53:46.569Z,13.90
2023-05-11T02:54:46.508Z,14.70
2023-05-11T02:55:46.530Z,13.80
2023-05-11T02:56:46.482Z,13.30
2023-05-11T02:57:46.509Z,12.90
2023-05-11T02:58:46.470Z,12.70
2023-05-11T02:59:46.450Z,13.50
2023-05-11T03:00:46.512Z,15.00
2023-05-11T03:01:46.488Z,14.80
2023-05-11T03:02:46.534Z,14.00
2023-05-11T03:03:46.564Z,14.70
2023-05-11T03:04:46.422Z,15.10
2023-05-11T03:05:46.388Z,13.40
2023-05-11T03:06:46.449Z,13.20
2023-05-11T03:07:46.360Z,15.30
2023-05-11T03:08:46.415Z,13.40
2023-05-11T03:09:46.390Z,14.60
2023-05-11T03:10:46.362Z,15.30
2023-05-11T03:11:46.308Z,15.60
2023-05-11T03:12:46.333Z,16.00
2023-05-11T03:13:46.388Z,17.20
2023-05-11T03:14:46.310Z,16.80
2023-05-11T03:15:46.270Z,15.20
2023-05-11T03:16:46.335Z,17.70
2023-05-11T03:17:46.334Z,15.50
2023-05-11T03:18:46.314Z,14.20
2023-05-11T03:19:46.190Z,15.40
2023-05-11T03:20:46.262Z,15.50
2023-05-11T03:21:46.193Z,14.20
2023-05-11T03:22:46.139Z,13.00
2023-05-11T03:23:46.179Z,13.50
2023-05-11T03:24:46.112Z,16.00
2023-05-11T03:25:46.112Z,14.60
2023-05-11T03:26:46.135Z,14.40
2023-05-11T03:27:46.101Z,20.00
2023-05-11T03:28:46.088Z,13.60
2023-05-11T03:29:46.062Z,13.50
2023-05-11T03:30:46.093Z,17.40
2023-05-11T03:31:46.518Z,13.00
2023-05-11T03:32:46.095Z,13.00
2023-05-11T03:33:46.024Z,13.70
2023-05-11T03:34:45.985Z,13.70
2023-05-11T03:35:45.997Z,12.30
2023-05-11T03:36:45.980Z,11.70
2023-05-11T03:37:45.964Z,11.80
2023-05-11T03:38:45.954Z,12.20
2023-05-11T03:39:45.945Z,13.00
2023-05-11T03:40:45.916Z,13.30
2023-05-11T03:41:45.902Z,17.00
2023-05-11T03:42:45.916Z,13.30
2023-05-11T03:43:45.878Z,13.60
2023-05-11T03:44:45.854Z,11.40
2023-05-11T03:45:45.900Z,11.80
2023-05-11T03:46:45.837Z,11.50
2023-05-11T03:47:45.885Z,15.60
2023-05-11T03:48:45.822Z,18.10
2023-05-11T03:49:45.780Z,13.10
2023-05-11T03:50:45.787Z,14.40
2023-05-11T03:51:45.749Z,13.50
2023-05-11T03:52:45.780Z,13.30
2023-05-11T03:53:45.729Z,14.50
2023-05-11T03:54:45.750Z,13.60
2023-05-11T03:55:45.717Z,14.40
2023-05-11T03:56:45.687Z,13.30
2023-05-11T03:57:45.674Z,12.40
2023-05-11T03:58:45.832Z,12.00
2023-05-11T03:59:45.669Z,11.30
2023-05-11T04:00:45.648Z,11.10
2023-05-11T04:01:45.644Z,11.60
2023-05-11T04:02:45.733Z,11.10
2023-05-11T04:03:45.814Z,10.30
2023-05-11T04:04:45.730Z,11.60
2023-05-11T04:05:45.598Z,11.10
2023-05-11T04:06:45.579Z,10.90
2023-05-11T04:07:45.556Z,10.10
2023-05-11T04:08:45.561Z,12.70
2023-05-11T04:09:45.540Z,11.50
2023-05-11T04:10:45.538Z,9.90
2023-05-11T04:11:45.485Z,16.40
2023-05-11T04:12:45.500Z,13.30
2023-05-11T04:13:45.481Z,11.60
2023-05-11T04:14:45.473Z,11.70
2023-05-11T04:15:45.474Z,11.40
2023-05-11T04:16:45.453Z,11.10
2023-05-11T04:17:51.459Z,8.90
2023-05-11T04:18:45.442Z,8.30
2023-05-11T04:19:45.373Z,9.00
2023-05-11T04:20:45.376Z,10.10
2023-05-11T04:21:45.377Z,8.40
2023-05-11T04:22:45.364Z,8.30
2023-05-11T04:23:45.340Z,8.10
2023-05-11T04:24:45.341Z,7.50
2023-05-11T04:25:45.315Z,9.30
2023-05-11T04:26:45.315Z,7.50
2023-05-11T04:27:45.315Z,8.00
2023-05-11T04:28:45.285Z,11.30
2023-05-11T04:29:45.250Z,7.80
2023-05-11T04:30:45.235Z,9.00
2023-05-11T04:31:45.276Z,6.30
2023-05-11T04:32:45.263Z,6.60
2023-05-11T04:33:45.222Z,7.40
2023-05-11T04:34:45.207Z,6.00
2023-05-11T04:35:45.183Z,8.80
2023-05-11T04:36:45.160Z,8.20
2023-05-11T04:37:45.154Z,7.50
2023-05-11T04:38:45.149Z,7.90
2023-05-11T04:39:45.138Z,9.20
2023-05-11T04:40:45.124Z,7.50
2023-05-11T04:41:45.095Z,7.30
2023-05-11T04:42:45.109Z,8.60
2023-05-11T04:43:45.068Z,5.70
2023-05-11T04:44:45.054Z,7.00
2023-05-11T04:45:45.039Z,6.70
2023-05-11T04:46:45.088Z,11.90
2023-05-11T04:47:45.088Z,8.10
2023-05-11T04:48:44.999Z,6.40
2023-05-11T04:49:44.995Z,7.80
2023-05-11T04:50:44.996Z,14.00
2023-05-11T04:51:44.983Z,8.80
2023-05-11T04:52:44.943Z,11.30
2023-05-11T04:53:44.957Z,6.10
2023-05-11T04:54:44.945Z,8.30
2023-05-11T04:55:44.929Z,6.40
2023-05-11T04:56:44.891Z,5.90
2023-05-11T04:57:44.906Z,8.80
2023-05-11T04:58:44.874Z,7.40
2023-05-11T04:59:44.979Z,7.60
2023-05-11T05:00:44.881Z,6.40
2023-05-11T05:01:44.845Z,7.50
2023-05-11T05:02:44.919Z,8.20
2023-05-11T05:03:44.840Z,8.60
2023-05-11T05:04:44.798Z,9.40
2023-05-11T05:05:44.774Z,5.90
2023-05-11T05:06:44.772Z,8.20
2023-05-11T05:07:44.752Z,8.00
2023-05-11T05:08:44.764Z,6.70
2023-05-11T05:09:45.523Z,5.80
2023-05-11T05:10:44.729Z,6.70
2023-05-11T05:11:44.692Z,6.30
2023-05-11T05:12:44.702Z,5.10
2023-05-11T05:13:44.681Z,7.70
2023-05-11T05:14:44.659Z,8.00
2023-05-11T05:15:44.672Z,9.40
2023-05-11T05:16:44.700Z,7.50
2023-05-11T05:17:44.659Z,7.50
2023-05-11T05:18:44.686Z,6.50
2023-05-11T05:19:44.591Z,5.70
2023-05-11T05:20:44.607Z,5.50
2023-05-11T05:21:44.586Z,5.80
2023-05-11T05:22:44.566Z,7.70
2023-05-11T05:23:44.572Z,8.90
2023-05-11T05:24:44.557Z,10.10
2023-05-11T05:25:44.531Z,4.30
2023-05-11T05:26:44.519Z,4.60
2023-05-11T05:27:44.501Z,10.90
2023-05-11T05:28:44.502Z,5.60
2023-05-11T05:29:44.489Z,6.00
2023-05-11T05:30:44.487Z,7.80
2023-05-11T05:31:44.448Z,8.50
2023-05-11T05:32:44.485Z,7.10
2023-05-11T05:33:44.406Z,4.90
2023-05-11T05:34:44.404Z,6.00
2023-05-11T05:35:44.450Z,4.60
2023-05-11T05:36:44.401Z,6.90
2023-05-11T05:37:44.354Z,11.00
2023-05-11T05:38:44.345Z,6.20
2023-05-11T05:39:45.894Z,5.10
2023-05-11T05:40:44.351Z,7.60
2023-05-11T05:41:44.320Z,10.00
2023-05-11T05:42:44.287Z,5.90
2023-05-11T05:43:44.294Z,5.10
2023-05-11T05:44:44.268Z,5.20
2023-05-11T05:45:44.245Z,4.70
2023-05-11T05:46:44.279Z,6.10
2023-05-11T05:47:44.300Z,11.80
2023-05-11T05:48:44.218Z,4.60
2023-05-11T05:49:44.217Z,10.10
2023-05-11T05:50:44.219Z,10.50
2023-05-11T05:51:44.198Z,5.60
2023-05-11T05:52:44.180Z,5.30
2023-05-11T05:53:44.137Z,6.60
2023-05-11T05:54:44.160Z,5.80
2023-05-11T05:55:44.126Z,4.90
2023-05-11T05:56:44.119Z,5.70
2023-05-11T05:57:44.092Z,5.20
2023-05-11T05:58:44.114Z,4.20
2023-05-11T05:59:44.087Z,5.00
2023-05-11T06:00:44.063Z,5.70
2023-05-11T06:01:44.055Z,5.40
2023-05-11T06:02:44.091Z,10.00
2023-05-11T06:03:44.227Z,4.90
2023-05-11T06:04:44.048Z,4.10
2023-05-11T06:05:43.986Z,5.40
2023-05-11T06:06:43.973Z,7.60
2023-05-11T06:07:49.321Z,4.00
2023-05-11T06:08:43.962Z,4.80
2023-05-11T06:09:43.950Z,6.60
2023-05-11T06:10:43.930Z,3.50
2023-05-11T06:11:43.919Z,7.30
2023-05-11T06:12:43.912Z,5.00
2023-05-11T06:13:43.898Z,5.70
2023-05-11T06:14:43.891Z,6.90
2023-05-11T06:15:44.075Z,5.60
2023-05-11T06:16:43.935Z,4.80
2023-05-11T06:17:43.883Z,5.30
2023-05-11T06:18:43.845Z,4.10
2023-05-11T06:19:43.820Z,5.50
2023-05-11T06:20:43.802Z,4.60
2023-05-11T06:21:43.806Z,3.60
2023-05-11T06:22:43.777Z,3.70
2023-05-11T06:23:43.769Z,4.60
2023-05-11T06:24:43.747Z,5.00
2023-05-11T06:25:43.744Z,4.90
2023-05-11T06:26:43.731Z,2.60
2023-05-11T06:27:43.715Z,5.40
2023-05-11T06:28:43.710Z,4.20
2023-05-11T06:29:43.673Z,7.00
2023-05-11T06:30:43.680Z,5.50
2023-05-11T06:31:43.706Z,4.20
2023-05-11T06:32:43.697Z,3.20
2023-05-11T06:33:43.615Z,3.30
2023-05-11T06:34:43.605Z,6.20
2023-05-11T06:35:43.617Z,3.40
2023-05-11T06:36:43.571Z,3.40
2023-05-11T06:37:43.590Z,4.40
2023-05-11T06:38:43.556Z,7.50
2023-05-11T06:39:43.554Z,5.20
2023-05-11T06:40:43.549Z,6.70
2023-05-11T06:41:43.538Z,5.60
2023-05-11T06:42:43.511Z,5.10
2023-05-11T06:43:43.508Z,5.70
2023-05-11T06:44:43.508Z,2.90
2023-05-11T06:45:43.496Z,4.10
2023-05-11T06:46:43.451Z,4.20
2023-05-11T06:47:43.474Z,7.50
2023-05-11T06:48:43.417Z,4.90
2023-05-11T06:49:43.406Z,3.60
2023-05-11T06:50:43.413Z,7.30
2023-05-11T06:51:43.418Z,4.30
2023-05-11T06:52:43.388Z,7.90
2023-05-11T06:53:43.377Z,14.60
2023-05-11T06:54:43.355Z,5.80
2023-05-11T06:55:43.362Z,9.40
2023-05-11T06:56:43.321Z,7.80
2023-05-11T06:57:43.735Z,8.30
2023-05-11T06:58:43.302Z,5.40
2023-05-11T06:59:43.293Z,7.80
2023-05-11T07:00:43.331Z,6.00
2023-05-11T07:01:43.312Z,5.20
2023-05-11T07:02:43.264Z,8.30
2023-05-11T07:03:43.221Z,3.90
2023-05-11T07:04:43.253Z,8.40
2023-05-11T07:05:43.210Z,3.50
2023-05-11T07:06:43.190Z,5.10
2023-05-11T07:07:43.193Z,4.20
2023-05-11T07:08:43.165Z,6.00
2023-05-11T07:09:43.168Z,5.90
2023-05-11T07:10:43.121Z,5.60
2023-05-11T07:11:43.157Z,4.30
2023-05-11T07:12:43.112Z,4.70
2023-05-11T07:13:43.105Z,7.40
2023-05-11T07:14:43.086Z,7.70
2023-05-11T07:15:43.060Z,11.50
2023-05-11T07:16:43.082Z,4.30
2023-05-11T07:17:43.142Z,7.10
2023-05-11T07:18:43.104Z,4.90
2023-05-11T07:19:43.036Z,3.80
2023-05-11T07:20:43.011Z,3.50
2023-05-11T07:21:43.026Z,3.00
2023-05-11T07:22:42.980Z,3.20
2023-05-11T07:23:43.006Z,5.30
2023-05-11T07:24:42.970Z,2.80
2023-05-11T07:25:42.992Z,4.90
2023-05-11T07:26:42.950Z,3.00
2023-05-11T07:27:42.950Z,3.40
2023-05-11T07:28:42.907Z,3.00
2023-05-11T07:29:42.918Z,2.80
2023-05-11T07:30:42.944Z,6.40
2023-05-11T07:31:42.922Z,7.70
2023-05-11T07:32:42.906Z,3.10
2023-05-11T07:33:42.875Z,4.00
2023-05-11T07:34:42.834Z,3.40
2023-05-11T07:35:42.826Z,5.90
2023-05-11T07:36:42.826Z,6.40
2023-05-11T07:37:42.811Z,6.90
2023-05-11T07:38:42.781Z,2.60
2023-05-11T07:39:42.770Z,2.70
2023-05-11T07:40:42.765Z,3.30
2023-05-11T07:41:42.753Z,3.10
2023-05-11T07:42:42.750Z,3.70
2023-05-11T07:43:42.713Z,3.50
2023-05-11T07:44:42.710Z,3.10
2023-05-11T07:45:42.741Z,2.70
2023-05-11T07:46:42.704Z,4.00
2023-05-11T07:47:42.728Z,3.90
2023-05-11T07:48:42.626Z,3.50
2023-05-11T07:49:44.241Z,7.30
2023-05-11T07:50:42.608Z,7.00
2023-05-11T07:51:42.584Z,3.00
2023-05-11T07:52:42.730Z,3.70
2023-05-11T07:53:42.584Z,6.40
2023-05-11T07:54:42.559Z,4.70
2023-05-11T07:55:42.567Z,6.50
2023-05-11T07:56:42.597Z,5.70
2023-05-11T07:57:42.506Z,4.10
2023-05-11T07:58:42.556Z,8.20
2023-05-11T07:59:42.506Z,3.20
2023-05-11T08:00:42.476Z,5.30
2023-05-11T08:01:42.484Z,3.50
2023-05-11T08:02:42.542Z,3.70
2023-05-11T08:03:42.425Z,3.30
2023-05-11T08:04:42.414Z,2.50
2023-05-11T08:05:42.412Z,3.20
2023-05-11T08:06:42.394Z,2.90
2023-05-11T08:07:42.393Z,2.70
2023-05-11T08:08:42.352Z,5.30
2023-05-11T08:09:42.346Z,4.90
2023-05-11T08:10:42.344Z,3.20
2023-05-11T08:11:42.344Z,1.70
2023-05-11T08:12:42.326Z,3.60
2023-05-11T08:13:42.359Z,3.20
2023-05-11T08:14:42.299Z,3.30
2023-05-11T08:15:42.296Z,3.60
2023-05-11T08:16:42.371Z,3.30
2023-05-11T08:17:42.270Z,4.70
2023-05-11T08:18:42.354Z,5.80
2023-05-11T08:19:42.223Z,2.60
2023-05-11T08:20:42.199Z,3.30
2023-05-11T08:21:42.193Z,2.90
2023-05-11T08:22:42.180Z,2.00
2023-05-11T08:23:44.549Z,1.80
2023-05-11T08:24:42.188Z,3.30
2023-05-11T08:25:42.196Z,2.90
2023-05-11T08:26:42.116Z,2.80
2023-05-11T08:27:42.119Z,2.40
2023-05-11T08:28:42.117Z,2.50
2023-05-11T08:29:42.107Z,3.70
2023-05-11T08:30:42.098Z,2.20
2023-05-11T08:31:42.107Z,3.30
2023-05-11T08:33:42.146Z,4.60
2023-05-11T08:34:42.095Z,7.20
2023-05-11T08:35:42.022Z,5.70
2023-05-11T08:36:42.015Z,4.80
2023-05-11T08:37:42.034Z,1.60
2023-05-11T08:38:42.014Z,3.70
2023-05-11T08:39:46.712Z,3.20
2023-05-11T08:40:41.989Z,3.00
2023-05-11T08:41:41.989Z,2.10
2023-05-11T08:42:41.922Z,3.60
2023-05-11T08:43:41.958Z,1.70
2023-05-11T08:44:41.904Z,1.60
2023-05-11T08:45:41.943Z,2.90
2023-05-11T08:46:41.878Z,3.30
2023-05-11T08:47:41.871Z,2.10
2023-05-11T08:48:41.852Z,3.90
2023-05-11T08:49:41.860Z,2.70
2023-05-11T08:50:41.853Z,6.80
2023-05-11T08:51:41.854Z,6.20
2023-05-11T08:52:41.795Z,1.80
2023-05-11T08:53:41.781Z,2.10
2023-05-11T08:54:41.819Z,4.80
2023-05-11T08:55:41.785Z,4.60
2023-05-11T08:56:41.771Z,3.60
2023-05-11T08:57:41.745Z,5.40
2023-05-11T08:58:41.725Z,3.90
2023-05-11T08:59:41.730Z,1.80
2023-05-11T09:00:41.701Z,5.30
2023-05-11T09:01:41.740Z,2.00
2023-05-11T09:02:41.716Z,3.30
2023-05-11T09:03:41.654Z,2.40
2023-05-11T09:04:41.767Z,1.70
2023-05-11T09:05:41.710Z,2.90
2023-05-11T09:06:41.626Z,1.70
2023-05-11T09:07:41.637Z,3.80
2023-05-11T09:08:41.588Z,6.20
2023-05-11T09:09:41.604Z,2.40
2023-05-11T09:10:41.559Z,2.50
2023-05-11T09:11:41.590Z,2.00
2023-05-11T09:12:41.587Z,2.50
2023-05-11T09:13:41.563Z,2.30
2023-05-11T09:14:41.532Z,2.20
2023-05-11T09:15:41.556Z,3.00
2023-05-11T09:16:41.537Z,2.40
2023-05-11T09:17:41.522Z,3.50
2023-05-11T09:18:41.521Z,2.40
2023-05-11T09:19:41.461Z,2.70
2023-05-11T09:20:41.465Z,1.30
2023-05-11T09:21:41.451Z,7.90
2023-05-11T09:22:41.436Z,2.00
2023-05-11T09:23:41.427Z,1.80
2023-05-11T09:24:41.426Z,3.70
2023-05-11T09:25:41.409Z,2.00
2023-05-11T09:26:41.383Z,2.90
2023-05-11T09:27:41.731Z,4.90
2023-05-11T09:29:41.355Z,4.60
2023-05-11T09:30:41.345Z,2.50
2023-05-11T09:31:41.377Z,3.60
2023-05-11T09:32:41.352Z,2.80
2023-05-11T09:33:41.315Z,1.80
2023-05-11T09:34:43.061Z,3.20
2023-05-11T09:35:41.289Z,3.20
2023-05-11T09:36:41.263Z,2.60
2023-05-11T09:37:41.257Z,2.20
2023-05-11T09:38:41.252Z,2.30
2023-05-11T09:40:04.660Z,3.10
2023-05-11T09:40:41.225Z,2.20
2023-05-11T09:41:41.227Z,2.70
2023-05-11T09:42:41.177Z,4.80
2023-05-11T09:43:41.178Z,3.60
2023-05-11T09:44:41.159Z,2.40
2023-05-11T09:45:41.164Z,1.60
2023-05-11T09:46:41.182Z,2.10
2023-05-11T09:47:41.163Z,4.60
2023-05-11T09:48:41.122Z,1.10
2023-05-11T09:49:41.128Z,3.50
2023-05-11T09:50:41.107Z,2.00
2023-05-11T09:51:41.109Z,1.60
2023-05-11T09:52:41.073Z,4.10
2023-05-11T09:53:41.224Z,4.90
2023-05-11T09:54:41.043Z,1.80
2023-05-11T09:55:41.024Z,2.30
2023-05-11T09:56:41.036Z,2.10
2023-05-11T09:57:41.009Z,3.60
2023-05-11T09:58:41.009Z,2.20
2023-05-11T09:59:41.010Z,3.90
2023-05-11T10:00:40.984Z,1.80
2023-05-11T10:01:41.011Z,2.70
2023-05-11T10:02:41.001Z,3.80
2023-05-11T10:03:41.054Z,2.50
2023-05-11T10:04:40.936Z,2.50
2023-05-11T10:05:40.940Z,2.40
2023-05-11T10:06:40.895Z,4.20
2023-05-11T10:07:40.909Z,5.30
2023-05-11T10:08:40.878Z,3.10
2023-05-11T10:09:40.866Z,2.30
2023-05-11T10:10:40.847Z,0.90
2023-05-11T10:11:40.845Z,2.80
2023-05-11T10:12:40.850Z,2.00
2023-05-11T10:13:40.832Z,2.70
2023-05-11T10:14:40.804Z,6.20
2023-05-11T10:15:40.792Z,2.30
2023-05-11T10:16:40.841Z,2.10
2023-05-11T10:17:40.798Z,3.30
2023-05-11T10:18:40.768Z,2.40
2023-05-11T10:19:40.769Z,1.30
2023-05-11T10:20:46.896Z,1.00
2023-05-11T10:21:40.750Z,2.40
2023-05-11T10:22:40.757Z,2.20
2023-05-11T10:23:40.705Z,7.10
2023-05-11T10:24:40.717Z,6.60
2023-05-11T10:25:40.700Z,1.20
2023-05-11T10:26:40.665Z,3.90
2023-05-11T10:27:40.669Z,3.30
2023-05-11T10:28:40.673Z,2.00
2023-05-11T10:29:40.660Z,2.90
2023-05-11T10:30:40.642Z,2.10
2023-05-11T10:31:40.633Z,2.50
2023-05-11T10:32:40.653Z,1.30
2023-05-11T10:33:40.626Z,2.20
2023-05-11T10:34:40.555Z,4.80
2023-05-11T10:35:40.588Z,8.40
2023-05-11T10:36:40.550Z,5.00
2023-05-11T10:37:40.536Z,1.50
2023-05-11T10:38:40.508Z,1.30
2023-05-11T10:39:40.499Z,2.40
2023-05-11T10:40:40.514Z,3.30
2023-05-11T10:41:40.476Z,1.50
2023-05-11T10:42:40.487Z,1.70
2023-05-11T10:43:40.440Z,2.40
2023-05-11T10:44:40.492Z,3.20
2023-05-11T10:45:40.497Z,2.20
2023-05-11T10:46:40.438Z,6.30
2023-05-11T10:47:40.448Z,1.80
2023-05-11T10:48:40.431Z,2.40
2023-05-11T10:49:40.365Z,1.30
2023-05-11T10:50:42.921Z,1.80
2023-05-11T10:51:40.391Z,1.20
2023-05-11T10:52:40.367Z,4.10
2023-05-11T10:53:40.366Z,1.30
2023-05-11T10:54:40.330Z,5.30
2023-05-11T10:55:40.312Z,2.60
2023-05-11T10:56:40.310Z,2.20
2023-05-11T10:57:40.300Z,1.30
2023-05-11T10:58:40.323Z,3.00
2023-05-11T10:59:40.260Z,2.10
2023-05-11T11:00:40.279Z,2.80
2023-05-11T11:01:40.309Z,4.20
2023-05-11T11:02:40.280Z,2.20
2023-05-11T11:03:40.220Z,3.20
2023-05-11T11:04:40.212Z,9.60
2023-05-11T11:05:40.177Z,5.60
2023-05-11T11:06:40.192Z,6.60
2023-05-11T11:07:40.202Z,3.70
2023-05-11T11:08:40.210Z,6.30
2023-05-11T11:09:40.194Z,1.00
2023-05-11T11:10:40.216Z,3.00
2023-05-11T11:11:40.186Z,3.00
2023-05-11T11:12:40.366Z,3.10
2023-05-11T11:13:40.124Z,4.00
2023-05-11T11:14:40.074Z,2.60
2023-05-11T11:15:40.075Z,4.40
2023-05-11T11:16:40.075Z,2.50
2023-05-11T11:17:40.060Z,3.70
2023-05-11T11:18:40.067Z,4.80
2023-05-11T11:19:40.007Z,3.70
2023-05-11T11:20:39.987Z,1.80
2023-05-11T11:21:39.988Z,7.70
2023-05-11T11:22:40.001Z,1.40
2023-05-11T11:23:39.967Z,2.20
2023-05-11T11:24:39.963Z,5.00
2023-05-11T11:25:39.917Z,2.60
2023-05-11T11:26:39.981Z,1.00
2023-05-11T11:27:39.991Z,2.10
2023-05-11T11:28:39.918Z,3.40
2023-05-11T11:29:39.894Z,2.80
2023-05-11T11:30:39.907Z,1.60
2023-05-11T11:31:39.899Z,0.70
2023-05-11T11:32:40.764Z,1.60
2023-05-11T11:33:39.856Z,1.80
2023-05-11T11:34:39.929Z,1.80
2023-05-11T11:35:39.952Z,3.40
2023-05-11T11:36:39.856Z,3.50
2023-05-11T11:37:39.806Z,2.80
2023-05-11T11:38:39.809Z,1.60
2023-05-11T11:39:39.820Z,5.60
2023-05-11T11:40:50.674Z,2.20
2023-05-11T11:41:39.802Z,3.00
2023-05-11T11:42:39.799Z,3.50
2023-05-11T11:43:39.770Z,1.30
2023-05-11T11:44:39.911Z,3.50
2023-05-11T11:45:39.827Z,1.20
2023-05-11T11:46:39.805Z,4.20
2023-05-11T11:47:39.797Z,1.30
2023-05-11T11:48:39.687Z,1.20
2023-05-11T11:49:39.710Z,4.70
2023-05-11T11:50:39.682Z,3.40
2023-05-11T11:51:39.614Z,1.50
2023-05-11T11:52:39.629Z,2.40
2023-05-11T11:53:39.586Z,1.80
2023-05-11T11:54:39.570Z,5.40
2023-05-11T11:55:39.546Z,1.10
2023-05-11T11:56:39.567Z,1.60
2023-05-11T11:57:39.535Z,2.20
2023-05-11T11:58:39.551Z,1.30
2023-05-11T11:59:39.498Z,3.90
2023-05-11T12:00:39.507Z,4.10
2023-05-11T12:01:39.496Z,2.00
2023-05-11T12:02:39.527Z,2.70
2023-05-11T12:03:39.572Z,4.80
2023-05-11T12:04:39.513Z,1.30
2023-05-11T12:05:39.441Z,3.00
2023-05-11T12:06:39.419Z,3.10
2023-05-11T12:07:39.408Z,1.50
2023-05-11T12:08:39.383Z,1.90
2023-05-11T12:09:39.406Z,2.90
2023-05-11T12:10:39.428Z,1.60
2023-05-11T12:11:39.375Z,3.10
2023-05-11T12:12:39.397Z,7.10
2023-05-11T12:13:39.375Z,7.50
2023-05-11T12:14:39.406Z,2.00
2023-05-11T12:15:39.342Z,1.80
2023-05-11T12:16:39.333Z,5.20
2023-05-11T12:17:39.401Z,1.40
2023-05-11T12:18:39.383Z,3.90
2023-05-11T12:19:39.263Z,3.80
2023-05-11T12:20:39.335Z,5.00
2023-05-11T12:21:39.243Z,0.70
2023-05-11T12:22:39.257Z,3.00
2023-05-11T12:23:39.238Z,1.80
2023-05-11T12:24:39.308Z,2.30
2023-05-11T12:25:39.303Z,1.80
2023-05-11T12:26:39.259Z,5.90
2023-05-11T12:27:39.262Z,4.40
2023-05-11T12:28:39.210Z,4.70
2023-05-11T12:29:39.193Z,9.20
2023-05-11T12:30:39.240Z,1.40
2023-05-11T12:31:39.205Z,7.40
2023-05-11T12:32:39.140Z,5.10
2023-05-11T12:33:39.102Z,4.30
2023-05-11T12:34:39.055Z,4.00
2023-05-11T12:35:39.080Z,3.80
2023-05-11T12:36:39.072Z,1.30
2023-05-11T12:37:39.076Z,3.30
2023-05-11T12:38:39.036Z,2.50
2023-05-11T12:39:39.780Z,2.10
2023-05-11T12:40:39.049Z,2.40
2023-05-11T12:41:39.035Z,0.80
2023-05-11T12:42:39.034Z,1.90
2023-05-11T12:43:38.982Z,3.10
2023-05-11T12:44:38.947Z,2.00
2023-05-11T12:45:38.935Z,1.30
2023-05-11T12:46:39.150Z,2.70
2023-05-11T12:47:38.959Z,3.30
2023-05-11T12:48:39.130Z,3.10
2023-05-11T12:49:38.893Z,3.40
2023-05-11T12:50:38.876Z,2.70
2023-05-11T12:51:38.892Z,1.50
2023-05-11T12:52:38.899Z,2.00
2023-05-11T12:53:38.865Z,3.40
2023-05-11T12:54:38.860Z,1.70
2023-05-11T12:55:38.805Z,1.30
2023-05-11T12:56:38.847Z,2.00
2023-05-11T12:57:38.787Z,2.30
2023-05-11T12:58:38.826Z,1.10
2023-05-11T12:59:38.845Z,1.80
2023-05-11T13:00:38.791Z,0.70
2023-05-11T13:01:38.779Z,1.40
2023-05-11T13:02:38.924Z,4.80
2023-05-11T13:03:38.943Z,3.20
2023-05-11T13:04:38.771Z,0.70
2023-05-11T13:05:38.736Z,3.90
2023-05-11T13:06:38.735Z,1.60
2023-05-11T13:07:38.685Z,3.30
2023-05-11T13:08:38.752Z,3.10
2023-05-11T13:09:38.691Z,0.70
2023-05-11T13:10:38.735Z,1.40
2023-05-11T13:11:38.759Z,2.20